createdAt,value
2019-06-20T00:01:32.619Z,68.37
2019-06-20T00:04:02.113Z,69.41
2019-06-20T00:06:33.495Z,69.00
2019-06-20T00:09:02.582Z,69.75
2019-06-20T00:11:34.408Z,70.48
2019-06-20T00:14:04.973Z,68.66
2019-06-20T00:16:36.723Z,68.81
2019-06-20T00:19:08.404Z,64.64
2019-06-20T00:21:37.884Z,64.61
2019-06-20T00:24:08.379Z,65.62
2019-06-20T00:26:37.875Z,65.27
2019-06-20T00:29:06.765Z,63.40
2019-06-20T00:31:37.515Z,62.81
2019-06-20T00:34:07.145Z,62.27
2019-06-20T00:36:40.106Z,62.53
2019-06-20T00:39:09.907Z,62.29
2019-06-20T00:41:40.466Z,62.73
2019-06-20T00:44:09.921Z,63.20
2019-06-20T00:46:40.616Z,62.61
2019-06-20T00:49:11.084Z,63.10
2019-06-20T00:51:41.833Z,62.70
2019-06-20T00:54:11.358Z,62.33
2019-06-20T00:56:39.891Z,62.69
2019-06-20T00:59:08.469Z,62.00
2019-06-20T01:01:38.053Z,62.07
2019-06-20T01:04:07.688Z,62.32
2019-06-20T01:06:38.901Z,62.13
2019-06-20T01:09:08.949Z,62.00
2019-06-20T01:11:39.195Z,62.26
2019-06-20T01:14:08.854Z,62.75
2019-06-20T01:16:39.703Z,62.60
2019-06-20T01:19:10.073Z,63.02
2019-06-20T01:21:40.738Z,62.50
2019-06-20T01:24:10.677Z,62.25
2019-06-20T01:26:41.847Z,62.17
2019-06-20T01:29:12.468Z,62.36
2019-06-20T01:31:42.164Z,62.08
2019-06-20T01:34:11.619Z,62.01
2019-06-20T01:36:42.756Z,61.81
2019-06-20T01:39:14.363Z,61.41
2019-06-20T01:41:43.813Z,62.75
2019-06-20T01:44:13.392Z,64.59
2019-06-20T01:46:42.810Z,65.98
2019-06-20T01:49:12.302Z,66.17
2019-06-20T01:51:41.886Z,66.38
2019-06-20T01:54:11.579Z,63.90
2019-06-20T01:56:44.467Z,65.02
2019-06-20T01:59:13.841Z,66.26
2019-06-20T02:01:45.475Z,67.24
2019-06-20T02:04:16.283Z,65.70
2019-06-20T02:06:45.948Z,65.08
2019-06-20T02:09:15.497Z,65.37
2019-06-20T02:11:46.447Z,64.98
2019-06-20T02:14:17.459Z,64.35
2019-06-20T02:16:47.029Z,64.70
2019-06-20T02:19:17.670Z,64.70
2019-06-20T02:21:47.286Z,65.11
2019-06-20T02:24:18.220Z,65.08
2019-06-20T02:26:47.897Z,65.59
2019-06-20T02:29:17.335Z,65.59
2019-06-20T02:31:46.985Z,66.50
2019-06-20T02:34:15.892Z,67.07
2019-06-20T02:36:47.233Z,67.01
2019-06-20T02:39:16.735Z,67.75
2019-06-20T02:41:47.239Z,67.75
2019-06-20T02:44:29.327Z,68.06
2019-06-20T02:46:52.065Z,67.97
2019-06-20T02:49:21.592Z,68.04
2019-06-20T02:51:54.487Z,68.04
2019-06-20T02:54:25.417Z,68.69
2019-06-20T02:56:57.773Z,67.91
2019-06-20T02:59:29.602Z,67.91
2019-06-20T03:01:58.975Z,67.95
2019-06-20T03:04:27.525Z,67.75
2019-06-20T03:06:56.020Z,67.75
2019-06-20T03:09:27.005Z,67.16
2019-06-20T03:11:55.850Z,67.14
2019-06-20T03:14:27.460Z,66.75
2019-06-20T03:16:59.997Z,66.38
2019-06-20T03:19:30.540Z,67.48
2019-06-20T03:22:02.275Z,67.63
2019-06-20T03:24:31.870Z,66.58
2019-06-20T03:27:01.261Z,66.58
2019-06-20T03:29:30.943Z,66.29
2019-06-20T03:32:00.576Z,65.71
2019-06-20T03:34:30.097Z,65.77
2019-06-20T03:36:59.487Z,66.42
2019-06-20T03:39:30.026Z,65.91
2019-06-20T03:42:01.186Z,66.11
2019-06-20T03:44:31.558Z,66.11
2019-06-20T03:47:04.454Z,66.39
2019-06-20T03:49:35.224Z,66.60
2019-06-20T03:52:04.740Z,66.87
2019-06-20T03:54:35.615Z,66.87
2019-06-20T03:57:06.175Z,66.71
2019-06-20T03:59:35.780Z,67.27
2019-06-20T04:02:06.390Z,67.26
2019-06-20T04:04:35.999Z,67.11
2019-06-20T04:07:05.730Z,67.52
2019-06-20T04:09:35.280Z,67.56
2019-06-20T04:12:05.785Z,68.44
2019-06-20T04:14:36.536Z,68.70
2019-06-20T04:17:09.537Z,69.52
2019-06-20T04:19:40.248Z,70.28
2019-06-20T04:22:09.083Z,70.28
2019-06-20T04:24:42.096Z,70.77
2019-06-20T04:27:16.472Z,70.82
2019-06-20T04:29:49.304Z,70.82
2019-06-20T04:32:18.825Z,71.02
2019-06-20T04:34:50.520Z,70.62
2019-06-20T04:37:21.253Z,71.32
2019-06-20T04:39:50.068Z,71.69
2019-06-20T04:42:19.886Z,73.12
2019-06-20T04:44:50.102Z,73.09
2019-06-20T04:47:20.773Z,73.69
2019-06-20T04:49:54.204Z,73.69
2019-06-20T04:52:23.671Z,73.10
2019-06-20T04:54:54.759Z,73.27
2019-06-20T04:57:28.754Z,71.03
2019-06-20T05:00:04.933Z,70.52
2019-06-20T05:02:37.424Z,69.12
2019-06-20T05:05:11.315Z,68.75
2019-06-20T05:07:41.767Z,60.71
2019-06-20T05:10:12.710Z,60.71
2019-06-20T05:12:43.308Z,55.90
2019-06-20T05:15:12.936Z,51.52
2019-06-20T05:17:47.254Z,45.60
2019-06-20T05:20:24.099Z,44.19
2019-06-20T05:22:54.193Z,45.99
2019-06-20T05:25:24.760Z,55.18
2019-06-20T05:27:55.164Z,59.28
2019-06-20T05:30:25.985Z,61.79
2019-06-20T05:32:55.777Z,63.46
2019-06-20T05:35:26.958Z,63.99
2019-06-20T05:37:57.034Z,64.87
2019-06-20T05:40:27.916Z,65.26
2019-06-20T05:42:57.392Z,64.68
2019-06-20T05:45:28.284Z,64.68
2019-06-20T05:47:57.951Z,64.68
2019-06-20T05:50:27.470Z,64.53
2019-06-20T05:52:58.229Z,63.72
2019-06-20T05:55:27.686Z,61.59
2019-06-20T05:57:58.516Z,60.88
2019-06-20T06:00:28.078Z,58.82
2019-06-20T06:02:58.743Z,59.36
2019-06-20T06:05:28.624Z,57.54
2019-06-20T06:07:59.378Z,57.50
2019-06-20T06:10:30.331Z,57.53
2019-06-20T06:12:59.789Z,57.30
2019-06-20T06:15:30.763Z,56.05
2019-06-20T06:18:02.235Z,55.21
2019-06-20T06:20:32.234Z,49.66
2019-06-20T06:23:01.143Z,41.66
2019-06-20T06:25:31.940Z,38.41
2019-06-20T06:28:01.663Z,42.71
2019-06-20T06:30:33.589Z,49.76
2019-06-20T06:33:04.146Z,54.37
2019-06-20T06:35:33.655Z,55.96
2019-06-20T06:38:04.197Z,54.67
2019-06-20T06:40:33.849Z,55.08
2019-06-20T06:43:03.341Z,54.87
2019-06-20T06:45:33.978Z,56.13
2019-06-20T06:48:04.990Z,54.90
2019-06-20T06:50:35.751Z,51.94
2019-06-20T06:53:06.670Z,49.38
2019-06-20T06:55:37.760Z,50.76
2019-06-20T06:58:07.258Z,51.07
2019-06-20T07:00:40.052Z,53.99
2019-06-20T07:03:09.415Z,56.92
2019-06-20T07:05:40.019Z,58.89
2019-06-20T07:08:09.553Z,59.21
2019-06-20T07:10:38.426Z,59.19
2019-06-20T07:13:09.203Z,59.26
2019-06-20T07:15:41.853Z,58.92
2019-06-20T07:18:11.480Z,59.86
2019-06-20T07:20:42.049Z,58.80
2019-06-20T07:23:11.764Z,54.22
2019-06-20T07:25:40.653Z,52.85
2019-06-20T07:28:10.017Z,47.50
2019-06-20T07:30:41.720Z,50.00
2019-06-20T07:33:12.210Z,51.65
2019-06-20T07:35:43.117Z,52.36
2019-06-20T07:38:13.729Z,53.60
2019-06-20T07:40:43.619Z,53.36
2019-06-20T07:43:16.441Z,51.01
2019-06-20T07:46:01.681Z,46.63
2019-06-20T07:48:18.383Z,40.18
2019-06-20T07:50:51.743Z,42.44
2019-06-20T07:53:22.260Z,45.09
2019-06-20T07:55:54.520Z,46.81
2019-06-20T07:58:26.743Z,49.07
2019-06-20T08:00:56.296Z,50.15
2019-06-20T08:03:27.221Z,46.24
2019-06-20T08:05:56.927Z,40.29
2019-06-20T08:08:26.389Z,33.76
2019-06-20T08:10:56.888Z,32.96
2019-06-20T08:13:27.893Z,38.54
2019-06-20T08:15:58.792Z,41.65
2019-06-20T08:18:28.319Z,44.67
2019-06-20T08:20:59.475Z,44.00
2019-06-20T08:23:30.183Z,46.60
2019-06-20T08:26:02.575Z,46.08
2019-06-20T08:28:32.202Z,46.21
2019-06-20T08:31:06.805Z,46.93
2019-06-20T08:33:37.805Z,46.31
2019-06-20T08:36:09.215Z,47.41
2019-06-20T08:38:38.334Z,46.62
2019-06-20T08:41:08.768Z,45.95
2019-06-20T08:43:38.187Z,44.58
2019-06-20T08:46:10.533Z,44.90
2019-06-20T08:48:40.147Z,43.39
2019-06-20T08:51:09.749Z,41.07
2019-06-20T08:53:43.733Z,37.53
2019-06-20T08:56:17.252Z,38.94
2019-06-20T08:58:55.719Z,36.70
2019-06-20T09:01:26.162Z,37.60
2019-06-20T09:03:58.560Z,38.42
2019-06-20T09:06:28.138Z,39.24
2019-06-20T09:08:58.513Z,41.80
2019-06-20T09:11:28.003Z,41.81
2019-06-20T09:13:57.525Z,44.70
2019-06-20T09:16:27.044Z,46.66
2019-06-20T09:18:58.765Z,47.76
2019-06-20T09:21:28.209Z,46.90
2019-06-20T09:24:00.948Z,47.04
2019-06-20T09:26:34.821Z,46.96
2019-06-20T09:29:05.524Z,47.35
2019-06-20T09:31:37.806Z,47.15
2019-06-20T09:34:07.573Z,47.01
2019-06-20T09:36:37.188Z,46.88
2019-06-20T09:39:10.549Z,45.92
2019-06-20T09:41:41.120Z,45.11
2019-06-20T09:44:12.292Z,45.80
2019-06-20T09:46:41.802Z,45.25
2019-06-20T09:49:11.347Z,45.20
2019-06-20T09:51:42.097Z,45.10
2019-06-20T09:54:11.730Z,45.81
2019-06-20T09:56:41.126Z,47.47
2019-06-20T09:59:26.849Z,48.42
2019-06-20T10:01:41.175Z,48.09
2019-06-20T10:04:12.205Z,47.32
2019-06-20T10:06:42.864Z,47.49
2019-06-20T10:09:12.394Z,47.76
2019-06-20T10:11:43.043Z,47.90
2019-06-20T10:14:14.267Z,47.81
2019-06-20T10:16:47.148Z,46.04
2019-06-20T10:19:19.900Z,46.34
2019-06-20T10:21:49.642Z,44.27
2019-06-20T10:24:19.388Z,44.12
2019-06-20T10:26:49.595Z,44.05
2019-06-20T10:29:21.867Z,42.78
2019-06-20T10:31:53.093Z,40.63
2019-06-20T10:34:23.476Z,42.81
2019-06-20T10:36:53.941Z,43.42
2019-06-20T10:39:23.412Z,44.04
2019-06-20T10:41:53.995Z,44.53
2019-06-20T10:44:27.831Z,44.18
2019-06-20T10:46:57.444Z,43.01
2019-06-20T10:49:28.174Z,42.38
2019-06-20T10:51:58.686Z,41.36
2019-06-20T10:54:31.089Z,42.11
2019-06-20T10:57:01.627Z,41.48
2019-06-20T10:59:31.035Z,41.42
2019-06-20T11:02:07.293Z,42.48
2019-06-20T11:04:37.227Z,43.68
2019-06-20T11:07:08.041Z,44.41
2019-06-20T11:09:39.607Z,44.23
2019-06-20T11:12:08.888Z,43.38
2019-06-20T11:14:40.321Z,45.64
2019-06-20T11:17:09.988Z,46.29
2019-06-20T11:19:39.818Z,44.14
2019-06-20T11:22:10.413Z,42.93
2019-06-20T11:24:42.939Z,44.21
2019-06-20T11:27:13.757Z,43.04
2019-06-20T11:29:44.095Z,42.36
2019-06-20T11:32:15.553Z,42.29
2019-06-20T11:34:47.474Z,44.89
2019-06-20T11:37:18.195Z,43.19
2019-06-20T11:39:51.286Z,44.31
2019-06-20T11:42:21.264Z,45.80
2019-06-20T11:44:50.948Z,46.17
2019-06-20T11:47:20.668Z,46.59
2019-06-20T11:49:51.301Z,45.55
2019-06-20T11:52:21.783Z,47.30
2019-06-20T11:54:52.549Z,45.95
2019-06-20T11:57:22.143Z,47.10
2019-06-20T11:59:51.540Z,46.67
2019-06-20T12:02:22.405Z,46.71
2019-06-20T12:04:51.904Z,45.40
2019-06-20T12:07:23.536Z,46.53
2019-06-20T12:09:53.958Z,44.27
2019-06-20T12:12:24.759Z,43.01
2019-06-20T12:14:53.592Z,44.58
2019-06-20T12:17:24.582Z,44.25
2019-06-20T12:19:54.012Z,40.02
2019-06-20T12:22:24.358Z,41.72
2019-06-20T12:24:55.350Z,41.37
2019-06-20T12:27:24.939Z,42.51
2019-06-20T12:29:57.522Z,42.82
2019-06-20T12:32:28.698Z,41.51
2019-06-20T12:34:59.302Z,43.77
2019-06-20T12:37:29.751Z,43.67
2019-06-20T12:39:59.242Z,45.24
2019-06-20T12:42:29.729Z,45.25
2019-06-20T12:45:00.581Z,45.78
2019-06-20T12:47:30.045Z,45.35
2019-06-20T12:50:00.624Z,45.57
2019-06-20T12:52:32.012Z,44.05
2019-06-20T12:55:01.726Z,44.46
2019-06-20T12:57:32.697Z,43.78
2019-06-20T13:00:03.273Z,44.30
2019-06-20T13:02:33.163Z,44.21
2019-06-20T13:05:03.804Z,43.86
2019-06-20T13:07:35.913Z,45.52
2019-06-20T13:10:09.999Z,46.31
2019-06-20T13:12:41.432Z,46.75
2019-06-20T13:15:13.474Z,47.33
2019-06-20T13:17:45.019Z,48.09
2019-06-20T13:20:17.625Z,48.13
2019-06-20T13:22:49.568Z,47.88
2019-06-20T13:25:20.524Z,48.31
2019-06-20T13:27:50.723Z,48.57
2019-06-20T13:30:21.645Z,48.22
2019-06-20T13:32:51.075Z,48.62
2019-06-20T13:35:21.875Z,49.27
2019-06-20T13:37:51.984Z,50.09
2019-06-20T13:40:21.828Z,50.20
2019-06-20T13:42:54.703Z,51.19
2019-06-20T13:45:27.017Z,52.96
2019-06-20T13:47:58.013Z,53.72
2019-06-20T13:50:30.579Z,52.39
2019-06-20T13:52:59.109Z,50.99
2019-06-20T13:55:28.651Z,50.88
2019-06-20T13:57:57.182Z,51.95
2019-06-20T14:00:27.178Z,51.23
2019-06-20T14:02:56.917Z,49.90
2019-06-20T14:05:27.327Z,50.64
2019-06-20T14:07:57.150Z,50.00
2019-06-20T14:10:26.881Z,52.10
2019-06-20T14:12:56.291Z,50.41
2019-06-20T14:15:25.663Z,49.63
2019-06-20T14:17:56.237Z,48.75
2019-06-20T14:20:27.662Z,47.80
2019-06-20T14:22:58.730Z,48.30
2019-06-20T14:25:28.336Z,47.63
2019-06-20T14:28:00.346Z,49.33
2019-06-20T14:30:32.317Z,50.89
2019-06-20T14:33:03.009Z,50.54
2019-06-20T14:35:34.430Z,51.39
2019-06-20T14:38:06.701Z,49.25
2019-06-20T14:40:37.495Z,48.14
2019-06-20T14:43:08.319Z,49.31
2019-06-20T14:45:42.087Z,49.18
2019-06-20T14:48:14.355Z,48.95
2019-06-20T14:50:45.555Z,50.80
2019-06-20T14:53:15.118Z,50.11
2019-06-20T14:55:45.979Z,49.84
2019-06-20T14:58:18.695Z,51.24
2019-06-20T15:00:48.211Z,53.16
2019-06-20T15:03:20.749Z,59.59
2019-06-20T15:05:52.582Z,63.19
2019-06-20T15:08:22.247Z,63.90
2019-06-20T15:10:51.939Z,65.38
2019-06-20T15:13:22.711Z,66.00
2019-06-20T15:15:55.682Z,67.17
2019-06-20T15:18:26.560Z,66.23
2019-06-20T15:20:59.371Z,66.30
2019-06-20T15:23:31.321Z,67.17
2019-06-20T15:26:03.913Z,67.67
2019-06-20T15:28:34.443Z,67.09
2019-06-20T15:31:04.265Z,66.09
2019-06-20T15:33:34.848Z,64.63
2019-06-20T15:36:05.881Z,66.86
2019-06-20T15:38:36.141Z,67.99
2019-06-20T15:41:05.939Z,68.23
2019-06-20T15:43:35.515Z,68.31
2019-06-20T15:46:06.317Z,67.64
2019-06-20T15:48:35.709Z,68.54
2019-06-20T15:51:09.013Z,69.27
2019-06-20T15:53:39.481Z,68.79
2019-06-20T15:56:08.902Z,68.84
2019-06-20T15:58:41.375Z,69.31
2019-06-20T16:01:12.094Z,69.03
2019-06-20T16:03:42.583Z,70.57
2019-06-20T16:06:14.487Z,70.92
2019-06-20T16:08:48.748Z,70.41
2019-06-20T16:11:18.399Z,70.40
2019-06-20T16:13:50.239Z,69.89
2019-06-20T16:16:22.810Z,65.91
2019-06-20T16:18:54.462Z,68.15
2019-06-20T16:21:25.177Z,65.26
2019-06-20T16:23:55.842Z,64.81
2019-06-20T16:26:26.331Z,68.96
2019-06-20T16:28:55.177Z,73.50
2019-06-20T16:31:27.042Z,74.95
2019-06-20T16:33:57.084Z,75.89
2019-06-20T16:36:29.052Z,79.15
2019-06-20T16:38:59.580Z,79.15
2019-06-20T16:41:29.984Z,77.81
2019-06-20T16:43:59.773Z,78.64
2019-06-20T16:46:33.422Z,77.73
2019-06-20T16:49:03.805Z,77.73
2019-06-20T16:51:35.251Z,76.75
2019-06-20T16:54:04.879Z,76.55
2019-06-20T16:56:37.138Z,76.48
2019-06-20T16:59:08.797Z,76.29
2019-06-20T17:01:40.025Z,75.76
2019-06-20T17:04:09.580Z,75.11
2019-06-20T17:06:40.743Z,75.54
2019-06-20T17:09:12.264Z,75.91
2019-06-20T17:11:46.542Z,75.72
2019-06-20T17:14:18.931Z,76.91
2019-06-20T17:16:48.680Z,73.66
2019-06-20T17:19:18.140Z,73.66
2019-06-20T17:21:47.714Z,72.42
2019-06-20T17:24:17.188Z,72.93
2019-06-20T17:26:46.736Z,76.43
2019-06-20T17:29:15.683Z,73.21
2019-06-20T17:31:45.313Z,72.73
2019-06-20T17:34:16.489Z,72.17
2019-06-20T17:36:48.819Z,70.62
2019-06-20T17:39:18.984Z,69.80
2019-06-20T17:41:55.203Z,69.18
2019-06-20T17:44:20.726Z,69.98
2019-06-20T17:46:51.348Z,70.07
2019-06-20T17:49:20.692Z,74.71
2019-06-20T17:51:51.355Z,75.62
2019-06-20T17:54:21.967Z,74.72
2019-06-20T17:56:51.875Z,73.72
2019-06-20T17:59:22.805Z,72.85
2019-06-20T18:01:52.035Z,75.34
2019-06-20T18:04:21.578Z,75.89
2019-06-20T18:06:51.157Z,74.87
2019-06-20T18:09:20.617Z,75.15
2019-06-20T18:11:50.065Z,76.45
2019-06-20T18:14:20.724Z,76.45
2019-06-20T18:16:50.670Z,76.05
2019-06-20T18:19:21.337Z,76.05
2019-06-20T18:21:51.940Z,77.39
2019-06-20T18:24:21.462Z,76.98
2019-06-20T18:26:52.226Z,77.86
2019-06-20T18:29:26.499Z,76.79
2019-06-20T18:31:57.970Z,76.79
2019-06-20T18:34:30.294Z,76.94
2019-06-20T18:36:58.315Z,78.06
2019-06-20T18:39:28.930Z,77.72
2019-06-20T18:42:00.220Z,76.75
2019-06-20T18:44:33.039Z,75.92
2019-06-20T18:47:02.471Z,76.88
2019-06-20T18:49:32.894Z,78.36
2019-06-20T18:52:02.465Z,78.12
2019-06-20T18:54:31.868Z,78.12
2019-06-20T18:57:01.406Z,78.11
2019-06-20T18:59:32.914Z,76.88
2019-06-20T19:02:07.412Z,74.29
2019-06-20T19:04:48.009Z,76.67
2019-06-20T19:07:12.191Z,78.90
2019-06-20T19:09:42.728Z,78.38
2019-06-20T19:12:17.810Z,79.06
2019-06-20T19:14:50.121Z,79.32
2019-06-20T19:17:21.031Z,76.73
2019-06-20T19:19:51.772Z,76.71
2019-06-20T19:22:23.672Z,76.71
2019-06-20T19:24:53.529Z,75.86
2019-06-20T19:27:24.129Z,76.42
2019-06-20T19:29:53.812Z,76.20
2019-06-20T19:32:23.278Z,77.36
2019-06-20T19:35:02.320Z,77.67
2019-06-20T19:37:31.109Z,78.05
2019-06-20T19:40:02.002Z,78.31
2019-06-20T19:42:32.597Z,78.02
2019-06-20T19:45:02.094Z,78.83
2019-06-20T19:47:31.665Z,79.20
2019-06-20T19:50:02.549Z,80.47
2019-06-20T19:52:34.534Z,80.60
2019-06-20T19:55:05.620Z,80.87
2019-06-20T19:57:38.384Z,81.62
2019-06-20T20:00:13.794Z,81.84
2019-06-20T20:02:44.752Z,81.70
2019-06-20T20:05:19.433Z,82.14
2019-06-20T20:07:47.844Z,82.19
2019-06-20T20:10:21.481Z,82.07
2019-06-20T20:12:51.018Z,81.96
2019-06-20T20:15:25.316Z,83.71
2019-06-20T20:17:53.824Z,84.25
2019-06-20T20:20:24.475Z,84.80
2019-06-20T20:22:55.286Z,85.80
2019-06-20T20:25:25.302Z,86.42
2019-06-20T20:27:56.248Z,86.03
2019-06-20T20:30:28.897Z,87.04
2019-06-20T20:33:01.977Z,84.42
2019-06-20T20:35:35.695Z,85.73
2019-06-20T20:38:05.109Z,84.99
2019-06-20T20:40:36.234Z,86.11
2019-06-20T20:43:07.987Z,86.95
2019-06-20T20:45:38.455Z,87.53
2019-06-20T20:48:09.181Z,85.95
2019-06-20T20:50:38.589Z,85.02
2019-06-20T20:53:10.679Z,84.12
2019-06-20T20:55:41.185Z,83.00
2019-06-20T20:58:11.716Z,83.16
2019-06-20T21:00:47.259Z,83.22
2019-06-20T21:03:17.855Z,84.64
2019-06-20T21:05:51.371Z,86.15
2019-06-20T21:08:18.579Z,87.50
2019-06-20T21:10:50.738Z,87.59
2019-06-20T21:13:21.208Z,86.83
2019-06-20T21:15:51.773Z,87.66
2019-06-20T21:18:21.120Z,88.23
2019-06-20T21:20:50.606Z,87.64
2019-06-20T21:23:20.176Z,86.74
2019-06-20T21:25:49.809Z,87.04
2019-06-20T21:28:19.325Z,87.92
2019-06-20T21:30:48.820Z,88.31
2019-06-20T21:33:19.347Z,89.23
2019-06-20T21:35:48.800Z,88.53
2019-06-20T21:38:20.878Z,88.25
2019-06-20T21:40:51.573Z,89.00
2019-06-20T21:43:21.207Z,89.12
2019-06-20T21:45:50.730Z,88.75
2019-06-20T21:48:21.495Z,88.82
2019-06-20T21:50:51.325Z,88.86
2019-06-20T21:53:21.995Z,89.69
2019-06-20T21:55:51.671Z,90.08
2019-06-20T21:58:24.580Z,90.35
2019-06-20T22:00:59.131Z,90.64
2019-06-20T22:03:29.917Z,90.55
2019-06-20T22:06:03.428Z,90.95
2019-06-20T22:08:36.545Z,90.89
2019-06-20T22:11:07.787Z,90.82
2019-06-20T22:13:38.975Z,90.63
2019-06-20T22:16:09.644Z,91.57
2019-06-20T22:18:40.366Z,91.19
2019-06-20T22:21:10.606Z,91.17
2019-06-20T22:23:40.030Z,90.61
2019-06-20T22:26:10.966Z,91.00
2019-06-20T22:28:41.117Z,91.02
2019-06-20T22:31:11.933Z,91.08
2019-06-20T22:33:43.779Z,91.57
2019-06-20T22:36:14.490Z,90.89
2019-06-20T22:38:45.078Z,91.18
2019-06-20T22:41:15.685Z,90.87
2019-06-20T22:43:45.084Z,90.75
2019-06-20T22:46:14.569Z,90.43
2019-06-20T22:48:44.207Z,90.92
2019-06-20T22:51:13.939Z,90.91
2019-06-20T22:53:44.803Z,90.13
2019-06-20T22:56:14.319Z,90.37
2019-06-20T22:58:45.612Z,89.99
2019-06-20T23:01:15.279Z,90.56
2019-06-20T23:03:44.799Z,90.10
2019-06-20T23:06:15.721Z,90.58
2019-06-20T23:08:45.215Z,90.46
2019-06-20T23:11:15.878Z,90.86
2019-06-20T23:13:45.604Z,91.50
2019-06-20T23:16:15.113Z,90.30
2019-06-20T23:18:47.905Z,91.30
2019-06-20T23:21:18.730Z,91.49
2019-06-20T23:23:49.491Z,91.35
2019-06-20T23:26:18.839Z,91.29
2019-06-20T23:28:51.195Z,91.50
2019-06-20T23:31:21.943Z,91.44
2019-06-20T23:33:52.847Z,92.16
2019-06-20T23:36:24.716Z,92.21
2019-06-20T23:38:55.673Z,92.09
2019-06-20T23:41:27.820Z,91.35
2019-06-20T23:43:58.464Z,91.62
2019-06-20T23:46:28.846Z,92.52
2019-06-20T23:48:59.871Z,92.51
2019-06-20T23:51:31.217Z,92.10
2019-06-20T23:54:00.934Z,92.81
2019-06-20T23:56:30.404Z,93.01
2019-06-20T23:59:01.103Z,92.92
